Map

Track Data

SID SEASON NUMBER BASIN SUBBASIN NAME ISO_TIME NATURE LAT LON WMO_WIND WMO_PRES WMO_AGENCY TRACK_TYPE DIST2LAND LANDFALL IFLAG USA_AGENCY USA_ATCF_ID USA_LAT USA_LON USA_RECORD USA_STATUS USA_WIND USA_PRES USA_SSHS USA_R34_NE USA_R34_SE USA_R34_SW USA_R34_NW USA_R50_NE USA_R50_SE USA_R50_SW USA_R50_NW USA_R64_NE USA_R64_SE USA_R64_SW USA_R64_NW USA_POCI USA_ROCI USA_RMW USA_EYE TOKYO_LAT TOKYO_LON TOKYO_GRADE TOKYO_WIND TOKYO_PRES TOKYO_R50_DIR TOKYO_R50_LONG TOKYO_R50_SHORT TOKYO_R30_DIR TOKYO_R30_LONG TOKYO_R30_SHORT TOKYO_LAND CMA_LAT CMA_LON CMA_CAT CMA_WIND CMA_PRES HKO_LAT HKO_LON HKO_CAT HKO_WIND HKO_PRES NEWDELHI_LAT NEWDELHI_LON NEWDELHI_GRADE NEWDELHI_WIND NEWDELHI_PRES NEWDELHI_CI NEWDELHI_DP NEWDELHI_POCI REUNION_LAT REUNION_LON REUNION_TYPE REUNION_WIND REUNION_PRES REUNION_TNUM REUNION_CI REUNION_RMW REUNION_R34_NE REUNION_R34_SE REUNION_R34_SW REUNION_R34_NW REUNION_R50_NE REUNION_R50_SE REUNION_R50_SW REUNION_R50_NW REUNION_R64_NE REUNION_R64_SE REUNION_R64_SW REUNION_R64_NW BOM_LAT BOM_LON BOM_TYPE BOM_WIND BOM_PRES BOM_TNUM BOM_CI BOM_RMW BOM_R34_NE BOM_R34_SE BOM_R34_SW BOM_R34_NW BOM_R50_NE BOM_R50_SE BOM_R50_SW BOM_R50_NW BOM_R64_NE BOM_R64_SE BOM_R64_SW BOM_R64_NW BOM_ROCI BOM_POCI BOM_EYE BOM_POS_METHOD BOM_PRES_METHOD NADI_LAT NADI_LON NADI_CAT NADI_WIND NADI_PRES WELLINGTON_LAT WELLINGTON_LON WELLINGTON_WIND WELLINGTON_PRES DS824_LAT DS824_LON DS824_STAGE DS824_WIND DS824_PRES TD9636_LAT TD9636_LON TD9636_STAGE TD9636_WIND TD9636_PRES TD9635_LAT TD9635_LON TD9635_WIND TD9635_PRES TD9635_ROCI NEUMANN_LAT NEUMANN_LON NEUMANN_CLASS NEUMANN_WIND NEUMANN_PRES MLC_LAT MLC_LON MLC_CLASS MLC_WIND MLC_PRES USA_GUST BOM_GUST BOM_GUST_PER REUNION_GUST REUNION_GUST_PER USA_SEAHGT USA_SEARAD_NE USA_SEARAD_SE USA_SEARAD_SW USA_SEARAD_NW STORM_SPEED STORM_DIR
1969249N17087 1969 70 NI BB NOT_NAMED 1969-09-05 18:00:00 TS 17.3000 86.8000 main 286 286 O________O____ jtwc_io IO071969 17.3000 86.8000 -1 17.3000 86.8000 TC 1 198
1969249N17087 1969 70 NI BB NOT_NAMED 1969-09-05 21:00:00 TS 17.2625 86.7875 main 286 278 P________P____ IO071969 17.2625 86.7875 -1 17.2625 86.7875 TC 1 270
1969249N17087 1969 70 NI BB NOT_NAMED 1969-09-06 00:00:00 TS 17.3000 86.7000 main 278 247 O________O____ jtwc_io IO071969 17.3000 86.7000 -1 17.3000 86.7000 TC 25 4 306
1969249N17087 1969 70 NI BB NOT_NAMED 1969-09-06 03:00:00 TS 17.4667 86.4889 main 247 209 P________PO___ IO071969 17.4625 86.4875 -1 17.4625 86.4875 TC 25 17.5000 86.5000 1 6 311
1969249N17087 1969 70 NI BB NOT_NAMED 1969-09-06 06:00:00 TS 17.7117 86.1996 main 209 170 O________OP___ jtwc_io IO071969 17.7000 86.2000 -1 17.7000 86.2000 TC 25 17.7584 86.1979 1 7 312
1969249N17087 1969 70 NI BB NOT_NAMED 1969-09-06 09:00:00 TS 17.9618 85.9044 main 163 125 P________PP___ IO071969 17.9425 85.9075 -1 17.9425 85.9075 TC 25 18.0132 85.8963 1 8 312
1969249N17087 1969 70 NI BB NOT_NAMED 1969-09-06 12:00:00 TS 18.2205 85.5989 main 125 81 O________OP___ jtwc_io IO071969 18.2000 85.6000 -1 18.2000 85.6000 TC 25 18.2615 85.5966 1 8 312
1969249N17087 1969 70 NI BB NOT_NAMED 1969-09-06 15:00:00 TS 18.4666 85.3049 main 81 43 P________PO___ IO071969 18.4499 85.3074 -1 18.4499 85.3074 TC 25 18.5000 85.3000 1 8 311
1969249N17087 1969 70 NI BB NOT_NAMED 1969-09-06 18:00:00 TS 18.7097 85.0013 main 43 10 O________OP___ jtwc_io IO071969 18.7000 85.0000 -1 18.7000 85.0000 TC 25 18.7290 85.0038 1 8 309
1969249N17087 1969 70 NI BB NOT_NAMED 1969-09-06 21:00:00 TS 18.9487 84.6776 main 10 0 P________PP___ IO071969 18.9424 84.6723 -1 18.9424 84.6723 TC 25 18.9614 84.6881 1 8 307
1969249N17087 1969 70 NI BB NOT_NAMED 1969-09-07 00:00:00 TS 19.2044 84.3095 main 0 0 O________OP___ jtwc_io IO071969 19.2000 84.3000 -1 19.2000 84.3000 TC 25 19.2131 84.3285 1 9 306
1969249N17087 1969 70 NI BB NOT_NAMED 1969-09-07 03:00:00 TS 19.4798 83.9013 main 0 0 P________PO___ IO071969 19.4697 83.9020 -1 19.4697 83.9020 TC 25 19.5000 83.9000 1 11 305
1969249N17087 1969 70 NI BB NOT_NAMED 1969-09-07 06:00:00 TS 19.8256 83.3804 main 0 0 O________OP___ jtwc_io IO071969 19.8000 83.4000 -1 19.8000 83.4000 TC 25 19.8767 83.3412 1 14 305
1969249N17087 1969 70 NI BB NOT_NAMED 1969-09-07 09:00:00 TS 20.2659 82.7064 main 0 0 P________PP___ IO071969 20.2580 82.7008 -1 20.2580 82.7008 TC 25 20.2816 82.7177 1 15 304
1969249N17087 1969 70 NI BB NOT_NAMED 1969-09-07 12:00:00 TS 20.6902 82.0283 main 0 0 O________OP___ jtwc_io IO071969 20.7000 82.0000 -1 20.7000 82.0000 TC 25 20.6705 82.0849 1 13 303
1969249N17087 1969 70 NI BB NOT_NAMED 1969-09-07 15:00:00 TS 21.0014 81.5030 main 0 0 P________PO___ IO071969 21.0021 81.5045 -1 21.0021 81.5045 TC 25 21.0000 81.5000 1 10 300
1969249N17087 1969 70 NI BB NOT_NAMED 1969-09-07 18:00:00 TS 21.2005 81.0775 main 0 0 O________OP___ jtwc_io IO071969 21.2000 81.1000 -1 21.2000 81.1000 TC 25 21.2015 81.0326 1 8 292
1969249N17087 1969 70 NI BB NOT_NAMED 1969-09-07 21:00:00 TS 21.3195 80.6640 main 0 0 P________PP___ IO071969 21.3074 80.6846 -1 21.3074 80.6846 TC 25 21.3438 80.6228 1 8 287
1969249N17087 1969 70 NI BB NOT_NAMED 1969-09-08 00:00:00 TS 21.4214 80.2839 main 0 0 O________OP___ jtwc_io IO071969 21.4000 80.3000 -1 21.4000 80.3000 TC 25 21.4642 80.2517 1 7 291
1969249N17087 1969 70 NI BB NOT_NAMED 1969-09-08 03:00:00 TS 21.5849 79.9283 main 0 0 P________PO___ IO071969 21.5774 79.9424 -1 21.5774 79.9424 TC 25 21.6000 79.9000 1 8 300
1969249N17087 1969 70 NI BB NOT_NAMED 1969-09-08 06:00:00 TS 21.8050 79.5812 main 0 0 O________OP___ jtwc_io IO071969 21.8000 79.6000 -1 21.8000 79.6000 TC 25 21.8151 79.5437 1 8 306
1969249N17087 1969 70 NI BB NOT_NAMED 1969-09-08 09:00:00 TS 22.0497 79.2383 main 0 0 P________PP___ IO071969 22.0499 79.2575 -1 22.0499 79.2575 TC 25 22.0493 79.2000 1 8 307
1969249N17087 1969 70 NI BB NOT_NAMED 1969-09-08 12:00:00 TS 22.2946 78.8854 main 0 0 O________OP___ jtwc_io IO071969 22.3000 78.9000 -1 22.3000 78.9000 TC 25 22.2839 78.8562 1 8 304
1969249N17087 1969 70 NI BB NOT_NAMED 1969-09-08 15:00:00 TS 22.5100 78.5049 main 0 0 P________PO___ IO071969 22.5150 78.5074 -1 22.5150 78.5074 TC 25 22.5000 78.5000 1 8 299
1969249N17087 1969 70 NI BB NOT_NAMED 1969-09-08 18:00:00 TS 22.7013 78.1035 main 0 0 O________OP___ jtwc_io IO071969 22.7000 78.1000 -1 22.7000 78.1000 TC 25 22.7040 78.1105 1 8 296
1969249N17087 1969 70 NI AS NOT_NAMED 1969-09-08 21:00:00 TS 22.8757 77.7026 main 0 0 P________PP___ IO071969 22.8724 77.7000 -1 22.8724 77.7000 TC 25 22.8824 77.7080 1 8 292
1969249N17087 1969 70 NI AS NOT_NAMED 1969-09-09 00:00:00 TS 23.0065 77.3005 main 0 0 O________OP___ jtwc_io IO071969 23.0000 77.3000 -1 23.0000 77.3000 TC 25 23.0196 77.3014 1 8 286
1969249N17087 1969 70 NI AS NOT_NAMED 1969-09-09 03:00:00 TS 23.0866 76.8950 main 0 0 P________PO___ IO071969 23.0800 76.8925 -1 23.0800 76.8925 TC 25 23.1000 76.9000 1 7 278
1969249N17087 1969 70 NI AS NOT_NAMED 1969-09-09 06:00:00 TS 23.1038 76.4989 main 0 0 O________OP___ jtwc_io IO071969 23.1000 76.5000 -1 23.1000 76.5000 TC 25 23.1115 76.4968 1 7 269
1969249N17087 1969 70 NI AS NOT_NAMED 1969-09-09 09:00:00 TS 23.0707 76.1297 main 0 0 P________PP___ IO071969 23.0724 76.1425 -1 23.0724 76.1425 TC 25 23.0675 76.1041 1 7 261
1969249N17087 1969 70 NI AS NOT_NAMED 1969-09-09 12:00:00 TS 22.9966 75.7782 main 0 0 O________OP___ jtwc_io IO071969 23.0000 75.8000 -1 23.0000 75.8000 TC 25 22.9897 75.7345 1 7 256
1969249N17087 1969 70 NI AS NOT_NAMED 1969-09-09 15:00:00 TS 22.9050 75.4233 main 0 0 P________PO___ IO071969 22.9075 75.4350 -1 22.9075 75.4350 TC 25 22.9000 75.4000 1 7 251
1969249N17087 1969 70 NI AS NOT_NAMED 1969-09-09 18:00:00 TS 22.7823 75.0883 main 0 0 O________OP___ jtwc_io IO071969 22.8000 75.1000 -1 22.8000 75.1000 TC 25 22.7468 75.0649 1 6 246
1969249N17087 1969 70 NI AS NOT_NAMED 1969-09-09 21:00:00 TS 22.6466 74.8040 main 0 0 P________PP___ IO071969 22.6699 74.8199 -1 22.6699 74.8199 TC 25 22.5999 74.7722 1 5 246
1969249N17087 1969 70 NI AS NOT_NAMED 1969-09-10 00:00:00 TS 22.5760 74.5811 main 0 0 O________OP___ jtwc_io IO071969 22.6000 74.6000 -1 22.6000 74.6000 TC 25 22.5281 74.5434 1 4 263
1969249N17087 1969 70 NI AS NOT_NAMED 1969-09-10 03:00:00 TS 22.6017 74.4034 main 0 0 P________PO___ IO071969 22.6025 74.4052 -1 22.6025 74.4052 TC 25 22.6000 74.4000 1 4 317
1969249N17087 1969 70 NI AS NOT_NAMED 1969-09-10 06:00:00 TS 22.8397 74.3106 main 0 0 O________OP___ jtwc_io IO071969 22.8000 74.3000 -1 22.8000 74.3000 TC 25 22.9190 74.3317 1 7 354
1969249N17087 1969 70 NI AS NOT_NAMED 1969-09-10 09:00:00 TS 23.3298 74.3152 main 0 0 P________PP___ IO071969 23.3050 74.2975 -1 23.3050 74.2975 TC 25 23.3795 74.3505 1 11 5
1969249N17087 1969 70 NI AS NOT_NAMED 1969-09-10 12:00:00 TS 23.9001 74.4147 main 0 0 O________OP___ jtwc_io IO071969 23.9000 74.4000 -1 23.9000 74.4000 TC 25 23.9003 74.4440 1 11 13
1969249N17087 1969 70 NI AS NOT_NAMED 1969-09-10 15:00:00 TS 24.3533 74.5800 main 0 0 P________PO___ IO071969 24.3300 74.5700 -1 24.3300 74.5700 TC 25 24.4000 74.6000 1 9 23
1969249N17087 1969 70 NI AS NOT_NAMED 1969-09-10 18:00:00 TS 24.7244 74.7974 main 0 0 O________OP___ jtwc_io IO071969 24.7000 74.8000 -1 24.7000 74.8000 TC 25 24.7733 74.7921 1 8 30
1969249N17087 1969 70 NI AS NOT_NAMED 1969-09-10 21:00:00 TS 25.0801 75.0415 main 0 0 P________PP___ IO071969 25.0650 75.0426 -1 25.0650 75.0426 TC 25 25.1102 75.0395 1 8 34
1969249N17087 1969 70 NI AS NOT_NAMED 1969-09-11 00:00:00 TS 25.4057 75.3057 main 0 0 O________OP___ jtwc_io IO071969 25.4000 75.3000 -1 25.4000 75.3000 TC 25 25.4170 75.3172 1 8 37
1969249N17087 1969 70 NI AS NOT_NAMED 1969-09-11 03:00:00 TS 25.7100 75.5667 main 0 0 P________PO___ IO071969 25.7150 75.5501 -1 25.7150 75.5501 TC 25 25.7000 75.6000 1 7 39
1969249N17087 1969 70 NI AS NOT_NAMED 1969-09-11 06:00:00 TS 25.9861 75.8270 main 0 0 O________OP___ jtwc_io IO071969 26.0000 75.8000 -1 26.0000 75.8000 TC 25 25.9653 75.8675 1 7 41
1969249N17087 1969 70 NI AS NOT_NAMED 1969-09-11 09:00:00 TS 26.2404 76.0798 main 0 0 P________PP___ IO071969 26.2576 76.0498 -1 26.2576 76.0498 TC 25 26.2176 76.1197 1 7 42
1969249N17087 1969 70 NI AS NOT_NAMED 1969-09-11 12:00:00 TS 26.4805 76.3311 main 0 0 O________OP___ jtwc_io IO071969 26.5000 76.3000 -1 26.5000 76.3000 TC 25 26.4611 76.3621 1 7 45
1969249N17087 1969 70 NI AS NOT_NAMED 1969-09-11 15:00:00 NR 26.7000 76.6000 main 0 __________O___ IO071969 -1 TC 26.7000 76.6000 1 7 48

About IBTrACS Database

This database is a web-friendly format of International Best Track Archive for Climate Stewardship (IBTrACS), a global best track data archive curated by NOAA dating back to 1842.

Updated: 2021-10-25